createdAt,value
2019-04-20T00:00:50.621Z,34.20
2019-04-20T00:03:18.073Z,33.95
2019-04-20T00:08:25.134Z,44.15
2019-04-20T00:11:02.613Z,55.73
2019-04-20T00:13:35.588Z,54.42
2019-04-20T00:15:59.930Z,48.38
2019-04-20T00:18:38.488Z,44.13
2019-04-20T00:21:11.002Z,39.60
2019-04-20T00:23:43.064Z,37.90
2019-04-20T00:26:23.238Z,40.90
2019-04-20T00:29:07.518Z,41.48
2019-04-20T00:31:39.311Z,43.80
2019-04-20T00:34:02.684Z,43.13
2019-04-20T00:36:26.285Z,46.37
2019-04-20T00:39:03.722Z,43.92
2019-04-20T00:41:34.265Z,41.53
2019-04-20T00:44:12.232Z,41.28
2019-04-20T00:46:52.749Z,41.40
2019-04-20T00:49:25.378Z,38.38
2019-04-20T00:52:15.252Z,39.75
2019-04-20T00:54:18.082Z,37.45
2019-04-20T00:56:49.878Z,37.20
2019-04-20T00:59:35.285Z,37.53
2019-04-20T01:02:12.665Z,37.90
2019-04-20T01:04:47.640Z,39.25
2019-04-20T01:07:17.612Z,38.78
2019-04-20T01:09:37.066Z,37.48
2019-04-20T01:12:14.802Z,36.75
2019-04-20T01:14:48.508Z,36.48
2019-04-20T01:17:15.040Z,35.30
2019-04-20T01:22:20.583Z,32.25
2019-04-20T01:24:51.596Z,25.88
2019-04-20T01:27:34.959Z,25.55
2019-04-20T01:30:08.967Z,23.70
2019-04-20T01:32:49.235Z,21.77
2019-04-20T01:35:18.140Z,21.93
2019-04-20T01:37:52.928Z,21.33
2019-04-20T01:40:10.844Z,21.00
2019-04-20T01:42:42.480Z,22.55
2019-04-20T01:45:21.447Z,21.62
2019-04-20T01:47:52.334Z,19.85
2019-04-20T01:50:24.484Z,21.33
2019-04-20T01:53:02.031Z,20.17
2019-04-20T01:55:42.456Z,20.02
2019-04-20T01:58:17.833Z,19.85
2019-04-20T02:00:38.260Z,20.00
2019-04-20T02:03:11.437Z,21.15
2019-04-20T02:05:50.385Z,18.25
2019-04-20T02:08:19.619Z,19.15
2019-04-20T02:10:53.720Z,19.32
2019-04-20T02:13:21.602Z,19.12
2019-04-20T02:15:57.843Z,19.50
2019-04-20T02:18:35.888Z,19.00
2019-04-20T02:21:15.108Z,19.05
2019-04-20T02:23:40.874Z,18.90
2019-04-20T02:26:05.245Z,19.35
2019-04-20T02:34:15.385Z,18.12
2019-04-20T02:39:37.560Z,17.85
2019-04-20T02:42:07.924Z,18.55
2019-04-20T02:47:17.345Z,17.70
2019-04-20T02:49:42.049Z,18.90
2019-04-20T02:54:45.123Z,19.05
2019-04-20T02:57:27.250Z,18.57
2019-04-20T03:02:13.333Z,19.87
2019-04-20T03:04:38.226Z,18.05
2019-04-20T03:07:14.912Z,18.67
2019-04-20T03:09:55.469Z,18.85
2019-04-20T03:12:33.367Z,19.00
2019-04-20T03:14:53.978Z,18.57
2019-04-20T03:17:35.367Z,20.97
2019-04-20T03:19:58.266Z,20.72
2019-04-20T03:22:59.915Z,21.35
2019-04-20T03:25:13.529Z,19.23
2019-04-20T03:27:41.033Z,20.65
2019-04-20T03:31:05.629Z,20.30
2019-04-20T03:35:52.869Z,22.02
2019-04-20T03:38:07.525Z,20.05
2019-04-20T03:40:29.634Z,20.20
2019-04-20T03:42:48.664Z,21.05
2019-04-20T03:45:23.079Z,21.60
2019-04-20T03:48:03.194Z,21.42
2019-04-20T03:50:49.208Z,21.12
2019-04-20T03:53:22.656Z,22.52
2019-04-20T03:55:50.089Z,22.13
2019-04-20T03:58:29.176Z,21.10
2019-04-20T04:00:59.810Z,21.50
2019-04-20T04:03:47.206Z,20.50
2019-04-20T04:06:08.584Z,22.05
2019-04-20T04:08:34.989Z,20.68
2019-04-20T04:11:15.991Z,21.87
2019-04-20T04:13:31.843Z,21.80
2019-04-20T04:16:07.922Z,21.50
2019-04-20T04:18:41.042Z,21.12
2019-04-20T04:21:16.140Z,22.32
2019-04-20T04:23:59.983Z,21.25
2019-04-20T04:26:32.318Z,22.17
2019-04-20T04:29:16.636Z,20.27
2019-04-20T04:31:36.252Z,21.73
2019-04-20T04:34:07.387Z,20.72
2019-04-20T04:36:52.308Z,20.85
2019-04-20T04:39:21.175Z,21.12
2019-04-20T04:42:01.796Z,20.92
2019-04-20T04:44:19.271Z,21.25
2019-04-20T04:46:43.530Z,20.20
2019-04-20T04:49:23.679Z,20.85
2019-04-20T04:51:52.351Z,21.20
2019-04-20T04:54:28.927Z,20.08
2019-04-20T04:56:50.476Z,21.75
2019-04-20T04:59:21.771Z,20.70
2019-04-20T05:01:56.554Z,22.13
2019-04-20T05:04:49.626Z,20.57
2019-04-20T05:07:11.236Z,20.65
2019-04-20T05:09:33.867Z,21.35
2019-04-20T05:12:11.871Z,20.32
2019-04-20T05:14:46.037Z,20.00
2019-04-20T05:17:32.896Z,19.90
2019-04-20T05:20:02.533Z,18.92
2019-04-20T05:22:40.123Z,19.67
2019-04-20T05:25:10.666Z,19.23
2019-04-20T05:27:47.930Z,19.37
2019-04-20T05:29:57.041Z,19.98
2019-04-20T05:32:37.885Z,19.00
2019-04-20T05:35:21.486Z,19.98
2019-04-20T05:38:02.654Z,17.32
2019-04-20T05:40:30.718Z,17.05
2019-04-20T05:43:03.141Z,15.65
2019-04-20T05:45:28.831Z,16.30
2019-04-20T05:48:02.588Z,17.75
2019-04-20T05:50:37.716Z,15.90
2019-04-20T05:53:14.468Z,16.90
2019-04-20T05:55:43.064Z,15.58
2019-04-20T05:58:23.350Z,18.82
2019-04-20T06:00:57.128Z,17.02
2019-04-20T06:03:20.245Z,16.95
2019-04-20T06:06:06.178Z,17.92
2019-04-20T06:08:43.551Z,16.42
2019-04-20T06:11:05.674Z,16.62
2019-04-20T06:13:32.644Z,17.73
2019-04-20T06:16:07.411Z,18.12
2019-04-20T06:18:40.186Z,18.12
2019-04-20T06:21:24.982Z,17.90
2019-04-20T06:23:56.700Z,16.90
2019-04-20T06:28:55.273Z,16.80
2019-04-20T06:31:39.797Z,17.55
2019-04-20T06:36:47.519Z,21.27
2019-04-20T06:39:20.272Z,17.90
2019-04-20T06:42:53.890Z,17.52
2019-04-20T06:44:30.321Z,17.40
2019-04-20T06:49:33.298Z,16.77
2019-04-20T06:52:04.622Z,15.68
2019-04-20T06:54:35.925Z,16.20
2019-04-20T06:57:10.155Z,15.65
2019-04-20T06:59:44.227Z,15.75
2019-04-20T07:04:52.117Z,14.23
2019-04-20T07:10:02.457Z,14.80
2019-04-20T07:12:23.034Z,14.73
2019-04-20T07:14:46.966Z,13.95
2019-04-20T07:17:40.704Z,15.43
2019-04-20T07:20:05.629Z,15.15
2019-04-20T07:22:37.551Z,14.45
2019-04-20T07:25:13.991Z,14.28
2019-04-20T07:27:49.000Z,15.08
2019-04-20T07:30:17.740Z,14.05
2019-04-20T07:35:26.305Z,13.72
2019-04-20T07:40:35.629Z,13.25
2019-04-20T07:43:14.703Z,13.58
2019-04-20T07:45:33.188Z,14.05
2019-04-20T07:48:15.041Z,13.48
2019-04-20T07:50:37.444Z,13.00
2019-04-20T07:53:12.290Z,13.43
2019-04-20T07:55:56.308Z,13.28
2019-04-20T07:58:13.421Z,13.53
2019-04-20T08:01:04.291Z,13.90
2019-04-20T08:03:33.649Z,13.60
2019-04-20T08:05:56.851Z,13.68
2019-04-20T08:08:35.013Z,14.05
2019-04-20T08:11:10.215Z,13.53
2019-04-20T08:13:46.780Z,13.83
2019-04-20T08:16:16.529Z,13.70
2019-04-20T08:18:51.410Z,13.43
2019-04-20T08:21:22.797Z,14.38
2019-04-20T08:23:54.043Z,15.53
2019-04-20T08:26:14.140Z,14.38
2019-04-20T08:28:51.034Z,15.15
2019-04-20T08:31:29.775Z,13.28
2019-04-20T08:34:20.191Z,14.40
2019-04-20T08:36:47.835Z,14.95
2019-04-20T08:41:50.388Z,15.18
2019-04-20T08:44:42.631Z,13.83
2019-04-20T08:47:03.867Z,14.53
2019-04-20T08:49:29.565Z,14.25
2019-04-20T08:52:11.359Z,16.02
2019-04-20T08:54:31.001Z,14.33
2019-04-20T08:56:51.521Z,15.30
2019-04-20T08:59:18.900Z,15.55
2019-04-20T09:01:51.094Z,15.25
2019-04-20T09:04:33.766Z,15.45
2019-04-20T09:07:05.612Z,15.70
2019-04-20T09:09:49.531Z,16.93
2019-04-20T09:12:14.718Z,16.52
2019-04-20T09:14:36.787Z,17.40
2019-04-20T09:17:12.297Z,17.48
2019-04-20T09:19:52.815Z,17.02
2019-04-20T09:22:28.299Z,18.05
2019-04-20T09:25:16.130Z,17.65
2019-04-20T09:27:29.461Z,18.15
2019-04-20T09:30:16.043Z,18.02
2019-04-20T09:32:39.539Z,18.40
2019-04-20T09:35:20.655Z,18.62
2019-04-20T09:37:55.331Z,17.77
2019-04-20T09:40:29.310Z,17.90
2019-04-20T09:42:42.667Z,18.70
2019-04-20T09:45:23.454Z,18.62
2019-04-20T09:47:52.876Z,17.57
2019-04-20T09:50:38.694Z,15.53
2019-04-20T09:53:10.099Z,15.28
2019-04-20T09:55:38.213Z,15.80
2019-04-20T09:58:14.825Z,15.00
2019-04-20T10:00:53.035Z,14.70
2019-04-20T10:03:08.694Z,15.05
2019-04-20T10:05:41.215Z,14.85
2019-04-20T10:08:13.700Z,14.30
2019-04-20T10:10:47.238Z,14.70
2019-04-20T10:13:19.415Z,13.88
2019-04-20T10:15:51.100Z,13.62
2019-04-20T10:20:53.888Z,14.53
2019-04-20T10:23:26.779Z,14.00
2019-04-20T10:25:58.933Z,14.33
2019-04-20T10:28:31.709Z,14.15
2019-04-20T10:31:04.257Z,14.03
2019-04-20T10:33:37.415Z,13.80
2019-04-20T10:36:11.979Z,14.28
2019-04-20T10:38:44.370Z,14.45
2019-04-20T10:41:29.734Z,14.85
2019-04-20T10:43:48.991Z,13.98
2019-04-20T10:46:20.826Z,14.65
2019-04-20T10:48:54.215Z,14.50
2019-04-20T10:51:25.916Z,14.80
2019-04-20T10:53:58.318Z,14.05
2019-04-20T10:56:29.604Z,13.45
2019-04-20T10:59:01.525Z,14.53
2019-04-20T11:01:33.665Z,14.68
2019-04-20T11:04:05.169Z,14.58
2019-04-20T11:06:38.567Z,13.25
2019-04-20T11:09:10.930Z,14.50
2019-04-20T11:11:42.212Z,13.65
2019-04-20T11:14:21.153Z,13.80
2019-04-20T11:16:46.670Z,15.35
2019-04-20T11:19:18.988Z,15.03
2019-04-20T11:21:50.661Z,16.65
2019-04-20T11:26:54.051Z,23.55
2019-04-20T11:29:26.310Z,27.90
2019-04-20T11:31:59.129Z,24.18
2019-04-20T11:34:33.988Z,31.82
2019-04-20T11:37:04.388Z,26.62
2019-04-20T11:39:37.019Z,27.73
2019-04-20T11:42:09.843Z,25.32
2019-04-20T11:44:42.428Z,25.92
2019-04-20T11:47:14.736Z,25.45
2019-04-20T11:49:46.540Z,21.12
2019-04-20T11:54:50.420Z,21.23
2019-04-20T11:57:22.216Z,20.60
2019-04-20T11:59:53.329Z,20.27
2019-04-20T12:02:32.168Z,22.75
2019-04-20T12:05:16.706Z,21.55
2019-04-20T12:07:37.821Z,21.77
2019-04-20T12:10:15.170Z,26.60
2019-04-20T12:12:47.305Z,22.93
2019-04-20T12:15:16.816Z,25.82
2019-04-20T12:17:49.515Z,23.83
2019-04-20T12:20:22.741Z,22.37
2019-04-20T12:22:54.643Z,22.27
2019-04-20T12:27:58.998Z,25.97
2019-04-20T12:30:30.000Z,27.93
2019-04-20T12:35:32.183Z,21.43
2019-04-20T12:38:03.459Z,21.57
2019-04-20T12:40:35.440Z,22.50
2019-04-20T12:43:07.285Z,23.85
2019-04-20T12:45:39.898Z,24.02
2019-04-20T12:48:11.708Z,26.30
2019-04-20T12:50:43.754Z,24.70
2019-04-20T12:53:16.898Z,25.05
2019-04-20T12:55:48.456Z,25.60
2019-04-20T12:58:20.869Z,24.35
2019-04-20T13:00:54.495Z,24.80
2019-04-20T13:03:25.812Z,24.80
2019-04-20T13:05:58.168Z,24.92
2019-04-20T13:08:37.979Z,24.32
2019-04-20T13:11:06.528Z,23.47
2019-04-20T13:13:40.710Z,22.95
2019-04-20T13:16:14.339Z,22.73
2019-04-20T13:18:47.662Z,21.77
2019-04-20T13:21:19.379Z,21.73
2019-04-20T13:23:53.195Z,20.62
2019-04-20T13:26:25.191Z,21.87
2019-04-20T13:31:29.529Z,21.75
2019-04-20T13:34:01.474Z,23.27
2019-04-20T13:36:34.450Z,24.45
2019-04-20T13:39:08.226Z,24.35
2019-04-20T13:41:40.236Z,24.43
2019-04-20T13:46:43.390Z,24.55
2019-04-20T13:49:15.239Z,24.20
2019-04-20T13:54:22.977Z,23.60
2019-04-20T13:56:52.989Z,25.77
2019-04-20T13:59:27.961Z,25.25
2019-04-20T14:02:01.312Z,25.23
2019-04-20T14:04:36.875Z,27.02
2019-04-20T14:07:09.367Z,36.42
2019-04-20T14:09:41.875Z,32.15
2019-04-20T14:12:22.198Z,28.20
2019-04-20T14:14:46.925Z,26.85
2019-04-20T14:17:19.170Z,25.55
2019-04-20T14:19:50.534Z,24.30
2019-04-20T14:22:22.840Z,23.85
2019-04-20T14:24:55.167Z,22.90
2019-04-20T14:27:26.692Z,22.00
2019-04-20T14:29:59.134Z,20.85
2019-04-20T14:32:30.997Z,20.72
2019-04-20T14:35:03.102Z,22.90
2019-04-20T14:37:35.894Z,21.62
2019-04-20T14:40:10.314Z,23.15
2019-04-20T14:42:46.347Z,22.40
2019-04-20T14:45:18.475Z,21.82
2019-04-20T14:47:49.930Z,21.70
2019-04-20T14:50:23.325Z,22.55
2019-04-20T14:52:55.644Z,22.50
2019-04-20T14:55:27.308Z,21.05
2019-04-20T14:58:01.488Z,21.93
2019-04-20T15:00:37.371Z,22.52
2019-04-20T15:03:10.137Z,19.95
2019-04-20T15:05:43.794Z,20.90
2019-04-20T15:08:16.434Z,21.48
2019-04-20T15:10:49.033Z,21.07
2019-04-20T15:13:20.652Z,20.57
2019-04-20T15:15:52.707Z,21.60
2019-04-20T15:18:27.194Z,21.87
2019-04-20T15:20:59.800Z,20.30
2019-04-20T15:23:31.378Z,19.98
2019-04-20T15:26:02.910Z,20.75
2019-04-20T15:28:34.654Z,20.08
2019-04-20T15:31:06.475Z,19.32
2019-04-20T15:33:39.049Z,19.35
2019-04-20T15:36:10.794Z,19.48
2019-04-20T15:38:42.985Z,18.02
2019-04-20T15:41:15.630Z,18.80
2019-04-20T15:43:48.994Z,19.25
2019-04-20T15:46:21.390Z,19.02
2019-04-20T15:48:53.342Z,18.57
2019-04-20T15:53:55.626Z,18.25
2019-04-20T15:58:58.733Z,18.12
2019-04-20T16:04:03.627Z,19.05
2019-04-20T16:06:35.148Z,19.12
2019-04-20T16:09:08.329Z,18.67
2019-04-20T16:11:39.434Z,18.35
2019-04-20T16:14:11.022Z,19.17
2019-04-20T16:16:42.729Z,18.42
2019-04-20T16:19:28.186Z,18.37
2019-04-20T16:21:47.874Z,18.27
2019-04-20T16:24:22.249Z,18.17
2019-04-20T16:26:55.813Z,19.30
2019-04-20T16:29:27.097Z,18.60
2019-04-20T16:31:58.793Z,19.30
2019-04-20T16:34:31.663Z,18.60
2019-04-20T16:37:04.215Z,18.42
2019-04-20T16:39:36.584Z,19.52
2019-04-20T16:42:09.486Z,18.67
2019-04-20T16:44:41.174Z,19.37
2019-04-20T16:47:12.390Z,19.48
2019-04-20T16:49:43.528Z,21.25
2019-04-20T16:52:15.283Z,21.00
2019-04-20T16:54:47.887Z,20.55
2019-04-20T16:57:19.807Z,21.02
2019-04-20T16:59:54.431Z,20.95
2019-04-20T17:02:24.511Z,19.87
2019-04-20T17:04:56.586Z,21.37
2019-04-20T17:10:02.209Z,21.73
2019-04-20T17:12:33.622Z,21.17
2019-04-20T17:15:07.470Z,21.17
2019-04-20T17:17:39.941Z,20.77
2019-04-20T17:20:13.745Z,20.65
2019-04-20T17:22:46.297Z,21.27
2019-04-20T17:25:19.648Z,21.97
2019-04-20T17:27:53.074Z,22.07
2019-04-20T17:30:27.477Z,21.45
2019-04-20T17:33:00.472Z,22.15
2019-04-20T17:35:43.489Z,21.50
2019-04-20T17:38:06.778Z,22.48
2019-04-20T17:40:59.152Z,20.77
2019-04-20T17:43:20.124Z,20.50
2019-04-20T17:45:57.642Z,21.27
2019-04-20T17:48:27.612Z,21.50
2019-04-20T17:51:12.276Z,21.75
2019-04-20T17:53:37.661Z,20.90
2019-04-20T17:55:57.279Z,20.80
2019-04-20T17:58:32.686Z,21.00
2019-04-20T18:01:03.608Z,22.80
2019-04-20T18:04:11.161Z,21.37
2019-04-20T18:06:25.412Z,21.60
2019-04-20T18:08:59.893Z,20.60
2019-04-20T18:11:21.287Z,21.77
2019-04-20T18:13:58.166Z,21.55
2019-04-20T18:16:46.898Z,21.07
2019-04-20T18:19:05.666Z,22.05
2019-04-20T18:21:32.843Z,22.13
2019-04-20T18:24:13.732Z,21.60
2019-04-20T18:26:51.948Z,21.85
2019-04-20T18:29:35.422Z,20.92
2019-04-20T18:31:44.986Z,22.95
2019-04-20T18:34:22.708Z,21.90
2019-04-20T18:36:53.344Z,21.65
2019-04-20T18:39:37.417Z,21.55
2019-04-20T18:42:11.057Z,22.77
2019-04-20T18:44:55.802Z,22.82
2019-04-20T18:47:23.604Z,21.87
2019-04-20T18:49:49.143Z,23.35
2019-04-20T18:52:09.696Z,22.35
2019-04-20T18:54:44.263Z,23.05
2019-04-20T18:57:19.584Z,22.22
2019-04-20T18:59:52.157Z,21.80
2019-04-20T19:02:26.543Z,22.00
2019-04-20T19:04:53.341Z,22.13
2019-04-20T19:07:25.717Z,23.90
2019-04-20T19:10:05.466Z,21.95
2019-04-20T19:12:42.434Z,22.73
2019-04-20T19:15:29.189Z,22.30
2019-04-20T19:17:53.784Z,22.40
2019-04-20T19:20:15.985Z,22.62
2019-04-20T19:22:48.217Z,23.32
2019-04-20T19:25:26.111Z,23.38
2019-04-20T19:27:55.849Z,22.60
2019-04-20T19:30:35.455Z,22.42
2019-04-20T19:33:14.913Z,22.27
2019-04-20T19:35:42.963Z,23.83
2019-04-20T19:38:10.290Z,23.62
2019-04-20T19:40:47.814Z,22.05
2019-04-20T19:43:15.958Z,23.35
2019-04-20T19:46:24.134Z,22.90
2019-04-20T19:48:28.140Z,21.65
2019-04-20T19:51:25.511Z,23.77
2019-04-20T19:53:36.588Z,23.10
2019-04-20T19:56:03.721Z,22.75
2019-04-20T19:58:34.425Z,24.45
2019-04-20T20:00:58.173Z,22.95
2019-04-20T20:03:29.925Z,23.75
2019-04-20T20:06:01.523Z,24.02
2019-04-20T20:08:35.807Z,23.42
2019-04-20T20:11:08.420Z,23.73
2019-04-20T20:13:43.936Z,23.20
2019-04-20T20:16:16.931Z,23.65
2019-04-20T20:18:56.179Z,23.52
2019-04-20T20:21:27.038Z,22.48
2019-04-20T20:23:50.060Z,23.02
2019-04-20T20:26:30.494Z,23.80
2019-04-20T20:29:07.250Z,24.25
2019-04-20T20:34:10.655Z,24.95
2019-04-20T20:39:11.088Z,25.30
2019-04-20T20:41:49.154Z,25.00
2019-04-20T20:44:15.671Z,22.60
2019-04-20T20:46:53.418Z,24.25
2019-04-20T20:49:27.675Z,24.00
2019-04-20T20:52:09.728Z,25.82
2019-04-20T20:54:34.650Z,27.02
2019-04-20T20:56:59.494Z,24.40
2019-04-20T20:59:34.809Z,25.68
2019-04-20T21:02:06.499Z,24.65
2019-04-20T21:04:29.995Z,24.35
2019-04-20T21:07:02.733Z,25.32
2019-04-20T21:09:35.391Z,25.30
2019-04-20T21:12:12.664Z,24.43
2019-04-20T21:14:42.108Z,25.55
2019-04-20T21:17:17.835Z,26.70
2019-04-20T21:20:03.517Z,28.70
2019-04-20T21:22:33.828Z,38.23
2019-04-20T21:24:53.080Z,35.78
2019-04-20T21:27:25.835Z,32.75
2019-04-20T21:30:00.023Z,28.80
2019-04-20T21:32:33.596Z,29.12
2019-04-20T21:35:06.950Z,27.25
2019-04-20T21:37:37.024Z,26.73
2019-04-20T21:40:22.772Z,26.15
2019-04-20T21:42:49.962Z,26.62
2019-04-20T21:45:22.809Z,27.15
2019-04-20T21:47:48.343Z,26.95
2019-04-20T21:50:34.407Z,27.75
2019-04-20T21:52:58.566Z,28.47
2019-04-20T21:55:25.934Z,26.33
2019-04-20T21:58:00.467Z,27.42
2019-04-20T22:00:35.075Z,28.17
2019-04-20T22:03:07.778Z,27.98
2019-04-20T22:05:38.157Z,27.15
2019-04-20T22:08:14.045Z,27.22
2019-04-20T22:10:42.882Z,28.30
2019-04-20T22:13:19.673Z,26.50
2019-04-20T22:15:55.744Z,28.20
2019-04-20T22:18:23.128Z,26.85
2019-04-20T22:21:03.572Z,27.10
2019-04-20T22:23:43.362Z,27.42
2019-04-20T22:26:10.226Z,27.90
2019-04-20T22:28:29.947Z,29.35
2019-04-20T22:31:02.198Z,28.42
2019-04-20T22:33:37.122Z,29.92
2019-04-20T22:36:09.432Z,27.45
2019-04-20T22:38:47.520Z,28.15
2019-04-20T22:41:18.041Z,28.75
2019-04-20T22:43:48.296Z,31.50
2019-04-20T22:46:26.817Z,31.73
2019-04-20T22:49:07.119Z,31.70
2019-04-20T22:51:39.867Z,30.90
2019-04-20T22:54:17.224Z,33.13
2019-04-20T22:56:43.787Z,33.78
2019-04-20T22:59:09.292Z,31.95
2019-04-20T23:01:40.767Z,36.30
2019-04-20T23:04:08.759Z,39.58
2019-04-20T23:06:45.830Z,35.35
2019-04-20T23:09:14.966Z,34.33
2019-04-20T23:11:47.222Z,36.05
2019-04-20T23:14:18.447Z,31.52
2019-04-20T23:16:53.509Z,30.30
2019-04-20T23:19:34.346Z,28.70
2019-04-20T23:21:59.657Z,30.08
2019-04-20T23:24:29.142Z,29.50
2019-04-20T23:27:04.455Z,32.38
2019-04-20T23:29:37.947Z,34.15
2019-04-20T23:32:09.819Z,34.48
2019-04-20T23:34:40.818Z,36.70
2019-04-20T23:37:19.569Z,34.53
2019-04-20T23:39:47.277Z,33.38
2019-04-20T23:42:19.835Z,31.93
2019-04-20T23:44:57.663Z,31.20
2019-04-20T23:47:27.881Z,30.60
2019-04-20T23:50:17.860Z,30.00
2019-04-20T23:52:53.406Z,30.00
2019-04-20T23:55:10.274Z,28.95
2019-04-20T23:57:41.874Z,29.87
